Time;durP1;ratioP1;P1;durP2;ratioP2;P2;SDS_P1;SDS_P2;PMS_P1;PMS_P2;Temp;Humidity;BMP_temperature;BMP_pressure;BME280_temperature;BME280_humidity;BME280_pressure;Samples;Min_cycle;Max_cycle;Signal;HPM_P1;HPM_P2
2021/08/12 00:01:51;;;;;;;6.70;5.63;;;20.20;99.90;;;;;;5033890;28;20453;-70
2021/08/12 00:04:19;;;;;;;6.67;5.80;;;20.20;99.90;;;;;;5033846;28;20551;-70
2021/08/12 00:06:46;;;;;;;8.00;5.77;;;20.20;99.90;;;;;;5033368;28;20479;-69
2021/08/12 00:09:13;;;;;;;7.23;6.30;;;20.10;99.90;;;;;;5033674;28;21001;-69
2021/08/12 00:11:41;;;;;;;6.70;6.10;;;20.10;99.90;;;;;;5033541;28;20534;-70
2021/08/12 00:14:10;;;;;;;6.57;5.80;;;20.00;99.90;;;;;;5033544;28;20940;-70
2021/08/12 00:16:37;;;;;;;8.53;6.47;;;20.00;99.90;;;;;;5033217;28;20844;-69
2021/08/12 00:19:04;;;;;;;7.10;6.37;;;19.90;99.90;;;;;;5033511;28;20469;-70
2021/08/12 00:21:32;;;;;;;8.80;6.90;;;19.90;99.90;;;;;;5033590;28;20484;-70
2021/08/12 00:23:59;;;;;;;6.50;5.90;;;19.90;99.90;;;;;;5033543;28;20447;-69
2021/08/12 00:26:26;;;;;;;9.77;6.33;;;20.00;99.90;;;;;;5033243;28;20480;-69
2021/08/12 00:28:54;;;;;;;7.40;6.67;;;20.00;99.90;;;;;;5033374;28;20831;-69
2021/08/12 00:31:21;;;;;;;7.77;6.77;;;20.00;99.90;;;;;;5033574;28;20445;-70
2021/08/12 00:33:48;;;;;;;7.43;6.30;;;20.00;99.90;;;;;;5033393;28;20535;-70
2021/08/12 00:36:14;;;;;;;7.37;6.47;;;20.00;99.90;;;;;;5033294;28;20483;-69
2021/08/12 00:38:42;;;;;;;7.57;6.77;;;20.00;99.90;;;;;;5033336;28;20534;-69
2021/08/12 00:41:09;;;;;;;8.80;6.80;;;19.90;99.90;;;;;;5033429;28;20874;-70
2021/08/12 00:43:36;;;;;;;6.87;6.27;;;19.80;99.90;;;;;;5033273;28;20998;-70
2021/08/12 00:46:04;;;;;;;8.90;7.20;;;19.80;99.90;;;;;;5036537;28;20453;-69
2021/08/12 00:48:31;;;;;;;8.37;6.20;;;19.80;99.90;;;;;;5037557;28;20446;-70
2021/08/12 00:50:58;;;;;;;10.63;7.00;;;19.80;99.90;;;;;;5037634;28;20480;-70
2021/08/12 00:53:25;;;;;;;6.35;5.72;;;19.70;99.90;;;;;;5037265;28;20458;-70
2021/08/12 00:55:52;;;;;;;7.87;6.87;;;19.80;99.90;;;;;;5036831;28;20205;-69
2021/08/12 00:58:19;;;;;;;7.50;6.33;;;19.80;99.90;;;;;;5037173;28;20450;-69
2021/08/12 01:00:48;;;;;;;7.83;7.03;;;19.80;99.90;;;;;;5037019;28;20519;-69
2021/08/12 01:03:17;;;;;;;9.10;8.30;;;19.80;99.90;;;;;;5036856;28;20989;-70
2021/08/12 01:05:45;;;;;;;8.30;7.33;;;19.70;99.90;;;;;;5036913;28;20795;-69
2021/08/12 01:08:19;;;;;;;8.30;7.43;;;19.60;99.90;;;;;;5037002;28;20450;-69
2021/08/12 01:10:49;;;;;;;7.50;6.53;;;19.60;99.90;;;;;;5037010;28;20555;-70
2021/08/12 01:13:35;;;;;;;8.33;6.83;;;19.60;99.90;;;;;;5036905;28;20443;-70
2021/08/12 01:16:07;;;;;;;7.27;6.50;;;19.70;99.90;;;;;;5036432;28;20470;-70
2021/08/12 01:18:40;;;;;;;6.73;6.07;;;19.60;99.90;;;;;;5036865;28;20795;-69
2021/08/12 01:21:21;;;;;;;7.10;6.37;;;19.60;99.90;;;;;;5036535;28;20566;-69
2021/08/12 01:23:47;;;;;;;6.87;6.17;;;19.60;99.90;;;;;;5036995;28;20451;-69
2021/08/12 01:26:18;;;;;;;7.40;6.70;;;19.60;99.90;;;;;;5036631;28;20545;-69
2021/08/12 01:28:47;;;;;;;7.05;6.20;;;19.50;99.90;;;;;;5036667;28;20450;-69
2021/08/12 01:31:27;;;;;;;7.10;6.40;;;19.50;99.90;;;;;;5036689;28;20233;-69
2021/08/12 01:34:04;;;;;;;8.83;5.93;;;19.50;99.90;;;;;;5036547;28;20452;-69
2021/08/12 01:36:34;;;;;;;7.23;6.30;;;19.50;99.90;;;;;;5036503;28;20501;-69
2021/08/12 01:39:03;;;;;;;7.38;6.60;;;19.50;99.90;;;;;;5036373;28;20840;-69
2021/08/12 01:41:30;;;;;;;7.07;6.30;;;19.50;99.90;;;;;;5036702;28;20235;-69
2021/08/12 01:43:59;;;;;;;8.10;6.70;;;19.50;99.90;;;;;;5036465;28;21039;-69
2021/08/12 01:46:28;;;;;;;8.15;6.75;;;19.50;99.90;;;;;;5035986;28;20449;-70
2021/08/12 01:48:56;;;;;;;7.43;6.35;;;19.30;99.90;;;;;;5036183;28;20228;-69
2021/08/12 01:51:26;;;;;;;7.72;6.85;;;19.20;99.90;;;;;;5036318;28;20296;-69
2021/08/12 01:53:56;;;;;;;7.63;6.70;;;19.20;99.90;;;;;;5036242;28;20207;-69
2021/08/12 01:56:26;;;;;;;7.27;5.80;;;19.30;99.90;;;;;;5035815;28;20240;-70
2021/08/12 01:58:54;;;;;;;6.65;6.00;;;19.30;99.90;;;;;;5036361;28;20989;-70
2021/08/12 02:01:22;;;;;;;7.90;6.40;;;19.30;99.90;;;;;;5035968;28;20226;-69
2021/08/12 02:03:52;;;;;;;6.70;6.10;;;19.30;99.90;;;;;;5035807;28;20933;-70
2021/08/12 02:06:21;;;;;;;6.72;6.13;;;19.20;99.90;;;;;;5036124;28;20210;-70
2021/08/12 02:08:48;;;;;;;6.37;5.10;;;19.20;99.90;;;;;;5035850;28;20235;-70
2021/08/12 02:11:17;;;;;;;7.40;6.15;;;19.20;99.90;;;;;;5035921;28;20534;-70
2021/08/12 02:13:44;;;;;;;8.43;6.75;;;19.10;99.90;;;;;;5035776;28;20566;-70
2021/08/12 02:16:11;;;;;;;7.45;6.70;;;19.10;99.90;;;;;;5035512;28;20607;-70
2021/08/12 02:18:40;;;;;;;6.15;5.55;;;19.00;99.90;;;;;;5035577;28;20213;-70
2021/08/12 02:21:10;;;;;;;8.07;6.83;;;19.10;99.90;;;;;;5035692;28;20228;-70
2021/08/12 02:23:41;;;;;;;7.18;6.28;;;19.10;99.90;;;;;;5035804;28;20538;-70
2021/08/12 02:26:11;;;;;;;8.48;6.10;;;19.10;99.90;;;;;;5035222;28;20204;-70
2021/08/12 02:28:42;;;;;;;6.50;5.85;;;19.10;99.90;;;;;;5035487;28;20299;-70
2021/08/12 02:31:11;;;;;;;7.03;6.00;;;19.10;99.90;;;;;;5035643;28;20189;-70
2021/08/12 02:33:40;;;;;;;7.57;6.15;;;19.10;99.90;;;;;;5035367;28;20681;-70
2021/08/12 02:36:08;;;;;;;6.95;6.25;;;19.10;99.90;;;;;;5035136;28;20207;-70
2021/08/12 02:38:38;;;;;;;6.10;5.00;;;19.10;99.90;;;;;;5035244;28;20209;-70
2021/08/12 02:41:07;;;;;;;6.40;5.80;;;19.10;99.90;;;;;;5034976;28;20712;-70
2021/08/12 02:43:39;;;;;;;6.70;6.05;;;19.00;99.90;;;;;;5035356;28;20293;-70
2021/08/12 02:46:07;;;;;;;7.45;5.90;;;19.00;99.90;;;;;;5035021;28;20659;-69
2021/08/12 02:48:35;;;;;;;6.65;5.93;;;19.00;99.90;;;;;;5035134;28;20204;-70
2021/08/12 02:51:04;;;;;;;6.90;5.70;;;19.00;99.90;;;;;;5035144;28;20204;-70
2021/08/12 02:53:33;;;;;;;7.40;6.05;;;19.00;99.90;;;;;;5035076;28;20207;-70
2021/08/12 02:56:02;;;;;;;7.60;6.72;;;19.10;99.90;;;;;;5034969;28;20572;-70
2021/08/12 02:58:32;;;;;;;7.25;6.20;;;19.10;99.90;;;;;;5035109;28;20291;-70
2021/08/12 03:01:01;;;;;;;7.85;6.60;;;19.10;99.90;;;;;;5034931;28;20220;-70
2021/08/12 03:03:29;;;;;;;7.07;5.93;;;19.10;99.90;;;;;;5034872;28;20210;-70
2021/08/12 03:05:57;;;;;;;8.43;6.70;;;19.20;99.90;;;;;;5034331;28;20459;-70
2021/08/12 03:08:31;;;;;;;6.70;5.97;;;19.10;99.90;;;;;;5033906;28;20200;-70
2021/08/12 03:10:58;;;;;;;8.05;7.05;;;19.10;99.90;;;;;;5034551;28;20649;-69
2021/08/12 03:13:25;;;;;;;7.68;6.53;;;19.00;99.90;;;;;;5034916;28;20218;-69
2021/08/12 03:15:53;;;;;;;6.97;6.22;;;19.00;99.90;;;;;;5034313;28;20231;-70
2021/08/12 03:18:21;;;;;;;6.90;6.25;;;18.90;99.90;;;;;;5034655;28;20204;-70
2021/08/12 03:20:48;;;;;;;7.82;6.20;;;18.90;99.90;;;;;;5034436;28;20232;-70
2021/08/12 03:23:15;;;;;;;7.18;6.28;;;18.90;99.90;;;;;;5034532;28;20235;-70
2021/08/12 03:25:42;;;;;;;7.05;6.35;;;18.90;99.90;;;;;;5034209;28;20572;-69
2021/08/12 03:28:09;;;;;;;6.30;5.70;;;18.90;99.90;;;;;;5034352;28;20204;-69
2021/08/12 03:30:37;;;;;;;7.32;6.03;;;18.90;99.90;;;;;;5034356;28;20319;-69
2021/08/12 03:33:04;;;;;;;8.05;7.25;;;18.90;99.90;;;;;;5034293;28;20204;-70
2021/08/12 03:35:32;;;;;;;8.05;6.70;;;18.80;99.90;;;;;;5034169;28;20208;-69
2021/08/12 03:37:59;;;;;;;6.68;5.70;;;18.70;99.90;;;;;;5034264;28;20201;-70
2021/08/12 03:40:26;;;;;;;7.63;6.82;;;18.70;99.90;;;;;;5034108;28;20653;-70
2021/08/12 03:42:53;;;;;;;7.90;7.03;;;18.80;99.90;;;;;;5034177;28;20269;-69
2021/08/12 03:45:20;;;;;;;7.93;6.60;;;18.80;99.90;;;;;;5033841;28;20291;-70
2021/08/12 03:47:47;;;;;;;8.35;6.53;;;18.80;99.90;;;;;;5033926;28;20658;-69
2021/08/12 03:50:16;;;;;;;8.65;6.32;;;18.70;99.90;;;;;;5034049;28;20300;-70
2021/08/12 03:52:44;;;;;;;9.05;7.18;;;18.80;99.90;;;;;;5033886;28;20207;-69
2021/08/12 03:55:12;;;;;;;6.80;5.95;;;18.70;99.90;;;;;;5033793;28;20226;-69
2021/08/12 03:57:41;;;;;;;7.85;6.40;;;18.70;99.90;;;;;;5033918;28;20205;-69
2021/08/12 04:00:09;;;;;;;7.10;6.20;;;18.70;99.90;;;;;;5034085;28;20227;-69
2021/08/12 04:02:36;;;;;;;8.35;7.50;;;18.60;99.90;;;;;;5033593;28;20714;-69
2021/08/12 04:05:04;;;;;;;6.68;5.97;;;18.60;99.90;;;;;;5033917;28;20204;-69
2021/08/12 04:07:30;;;;;;;6.50;5.90;;;18.60;99.90;;;;;;5033796;28;20227;-69
2021/08/12 04:09:59;;;;;;;6.90;6.20;;;18.60;99.90;;;;;;5033525;28;20224;-69
2021/08/12 04:12:25;;;;;;;7.28;6.57;;;18.60;99.90;;;;;;5033717;28;20200;-69
2021/08/12 04:14:53;;;;;;;7.47;6.18;;;18.60;99.90;;;;;;5034125;28;20296;-70
2021/08/12 04:17:19;;;;;;;7.22;6.53;;;18.60;99.90;;;;;;5033605;28;20243;-70
2021/08/12 04:19:46;;;;;;;7.30;6.30;;;18.50;99.90;;;;;;5033604;28;20311;-69
2021/08/12 04:22:13;;;;;;;8.60;6.35;;;18.50;99.90;;;;;;5033595;28;20335;-69
2021/08/12 04:24:40;;;;;;;6.57;5.80;;;18.50;99.90;;;;;;5033589;28;20210;-69
2021/08/12 04:27:08;;;;;;;7.28;6.32;;;18.50;99.90;;;;;;5033330;28;20766;-69
2021/08/12 04:29:36;;;;;;;7.60;6.35;;;18.30;99.90;;;;;;5033767;28;20574;-69
2021/08/12 04:32:03;;;;;;;7.80;6.70;;;18.20;99.90;;;;;;5033503;28;20200;-69
2021/08/12 04:34:30;;;;;;;7.03;6.10;;;18.20;99.90;;;;;;5033477;28;20566;-69
2021/08/12 04:36:56;;;;;;;7.43;6.63;;;18.20;99.90;;;;;;5033199;28;20738;-69
2021/08/12 04:39:23;;;;;;;6.47;5.88;;;18.30;99.90;;;;;;5033360;28;20311;-69
2021/08/12 04:41:50;;;;;;;6.55;5.85;;;18.30;99.90;;;;;;5033385;28;20230;-69
2021/08/12 04:44:18;;;;;;;7.38;6.07;;;18.40;99.90;;;;;;5033383;28;20208;-69
2021/08/12 04:46:45;;;;;;;7.50;6.15;;;18.40;99.90;;;;;;5033343;28;20219;-69
2021/08/12 04:49:13;;;;;;;6.88;5.95;;;18.40;99.90;;;;;;5033282;28;20655;-69
2021/08/12 04:51:39;;;;;;;6.90;6.18;;;18.40;99.90;;;;;;5033441;28;20196;-69
2021/08/12 04:54:06;;;;;;;7.53;6.70;;;18.30;99.90;;;;;;5033006;28;20621;-69
2021/08/12 04:56:33;;;;;;;8.20;7.35;;;18.20;99.90;;;;;;5033279;28;20295;-69
2021/08/12 04:59:00;;;;;;;8.05;6.78;;;18.10;99.90;;;;;;5032978;28;20778;-70
2021/08/12 05:01:28;;;;;;;7.50;6.72;;;18.10;99.90;;;;;;5033465;28;20250;-69
2021/08/12 05:03:55;;;;;;;7.03;6.30;;;18.20;99.90;;;;;;5033187;28;20208;-70
2021/08/12 05:06:22;;;;;;;8.93;6.65;;;18.30;99.90;;;;;;5032793;28;20200;-70
2021/08/12 05:08:49;;;;;;;6.93;6.18;;;18.40;99.90;;;;;;5032910;28;20292;-70
2021/08/12 05:11:15;;;;;;;7.10;6.32;;;18.60;99.90;;;;;;5033116;28;20762;-70
2021/08/12 05:13:43;;;;;;;8.30;6.80;;;18.70;99.90;;;;;;5033252;28;20200;-70
2021/08/12 05:16:09;;;;;;;6.60;5.80;;;18.90;99.90;;;;;;5032663;28;20307;-69
2021/08/12 05:18:38;;;;;;;7.43;6.55;;;19.00;99.90;;;;;;5033100;28;20202;-70
2021/08/12 05:21:04;;;;;;;7.07;6.32;;;19.00;99.90;;;;;;5033097;28;20292;-69
2021/08/12 05:23:32;;;;;;;9.18;7.18;;;18.80;99.90;;;;;;5033048;28;20296;-69
2021/08/12 05:26:00;;;;;;;7.78;6.47;;;18.80;99.90;;;;;;5033360;28;20212;-69
2021/08/12 05:28:26;;;;;;;8.90;6.55;;;18.90;99.90;;;;;;5033005;28;20638;-69
2021/08/12 05:30:55;;;;;;;8.13;7.25;;;19.00;99.90;;;;;;5034252;28;20311;-69
2021/08/12 05:33:22;;;;;;;9.85;7.38;;;19.10;99.90;;;;;;5036665;28;20201;-69
2021/08/12 05:35:50;;;;;;;7.07;6.07;;;19.10;99.90;;;;;;5036458;28;20205;-69
2021/08/12 05:38:17;;;;;;;7.72;6.93;;;19.10;99.90;;;;;;5036580;28;20205;-69
2021/08/12 05:40:44;;;;;;;7.97;6.75;;;19.20;99.90;;;;;;5036528;28;20226;-69
2021/08/12 05:43:10;;;;;;;7.95;6.55;;;19.20;99.90;;;;;;5036383;28;20235;-69
2021/08/12 05:45:37;;;;;;;7.28;6.53;;;19.20;99.90;;;;;;5036217;28;20295;-69
2021/08/12 05:48:05;;;;;;;8.80;7.30;;;19.20;99.90;;;;;;5036128;28;20211;-69
2021/08/12 05:50:32;;;;;;;8.07;7.27;;;19.20;99.90;;;;;;5036055;28;20229;-69
2021/08/12 05:53:00;;;;;;;6.72;6.13;;;19.10;99.90;;;;;;5036275;28;20441;-69
2021/08/12 05:55:27;;;;;;;8.32;7.53;;;19.10;99.90;;;;;;5036037;28;20204;-70
2021/08/12 05:57:54;;;;;;;6.90;6.20;;;19.10;99.90;;;;;;5036193;28;20296;-69
2021/08/12 06:00:21;;;;;;;8.00;6.80;;;19.00;99.90;;;;;;5036145;28;20236;-69
2021/08/12 06:02:49;;;;;;;8.05;7.03;;;19.00;99.90;;;;;;5035952;28;20556;-70
2021/08/12 06:05:16;;;;;;;8.20;7.30;;;18.90;99.90;;;;;;5035877;28;20203;-69
2021/08/12 06:07:43;;;;;;;8.13;6.93;;;18.90;99.90;;;;;;5036047;28;20470;-70
2021/08/12 06:10:11;;;;;;;10.25;7.05;;;19.00;99.90;;;;;;5035954;28;20468;-70
2021/08/12 06:12:38;;;;;;;9.55;7.60;;;19.10;99.90;;;;;;5035896;28;20625;-70
2021/08/12 06:15:09;;;;;;;7.30;6.43;;;19.10;99.90;;;;;;5035550;28;20207;-70
2021/08/12 06:17:37;;;;;;;6.88;5.95;;;19.10;99.90;;;;;;5035471;28;20456;-70
2021/08/12 06:20:05;;;;;;;8.33;7.10;;;19.00;99.90;;;;;;5035817;28;20278;-70
2021/08/12 06:22:32;;;;;;;8.57;6.77;;;19.00;99.90;;;;;;5035629;28;20511;-70
2021/08/12 06:24:59;;;;;;;7.60;6.80;;;19.00;99.90;;;;;;5035461;28;20444;-70
2021/08/12 06:27:27;;;;;;;7.85;6.70;;;19.10;99.90;;;;;;5035514;28;20214;-70
2021/08/12 06:29:54;;;;;;;8.13;7.32;;;19.20;99.90;;;;;;5035331;28;20745;-70
2021/08/12 06:32:20;;;;;;;7.75;7.00;;;19.20;99.90;;;;;;5035486;28;20291;-70
2021/08/12 06:34:47;;;;;;;6.82;6.10;;;19.20;99.90;;;;;;5035137;28;20211;-70
2021/08/12 06:37:14;;;;;;;8.73;6.72;;;19.10;99.90;;;;;;5035422;28;20291;-70
2021/08/12 06:39:41;;;;;;;6.70;6.00;;;19.10;99.90;;;;;;5035286;28;20256;-70
2021/08/12 06:42:08;;;;;;;9.30;7.25;;;19.10;99.90;;;;;;5034317;28;20312;-70
2021/08/12 06:44:36;;;;;;;8.63;6.72;;;19.00;99.90;;;;;;5035285;28;20216;-69
2021/08/12 06:47:03;;;;;;;7.68;6.97;;;19.00;99.90;;;;;;5035220;28;20215;-70
2021/08/12 06:49:30;;;;;;;7.70;6.57;;;19.00;99.90;;;;;;5035279;28;20231;-70
2021/08/12 06:51:56;;;;;;;8.77;6.87;;;19.00;99.90;;;;;;5035018;28;20209;-70
2021/08/12 06:54:23;;;;;;;8.03;6.80;;;19.00;99.90;;;;;;5035080;28;20490;-70
2021/08/12 06:56:50;;;;;;;7.97;7.18;;;19.10;99.90;;;;;;5034853;28;20499;-70
2021/08/12 06:59:17;;;;;;;8.57;6.80;;;19.30;99.90;;;;;;5034986;28;20224;-70
2021/08/12 07:01:45;;;;;;;8.30;5.87;;;19.50;99.90;;;;;;5034877;28;20481;-70
2021/08/12 07:04:12;;;;;;;10.03;6.80;;;19.70;99.90;;;;;;5034887;28;20526;-70
2021/08/12 07:06:39;;;;;;;8.60;6.60;;;19.80;99.90;;;;;;5034595;28;20485;-69
2021/08/12 07:09:06;;;;;;;7.97;6.87;;;19.90;99.90;;;;;;5034676;28;20986;-70
2021/08/12 07:11:33;;;;;;;6.53;5.73;;;20.10;99.90;;;;;;5034844;28;20528;-70
2021/08/12 07:14:00;;;;;;;7.20;6.50;;;20.30;99.90;;;;;;5034753;28;20807;-70
2021/08/12 07:16:26;;;;;;;8.23;6.70;;;20.40;99.90;;;;;;5034408;28;20525;-70
2021/08/12 07:18:54;;;;;;;7.10;6.40;;;20.30;99.90;;;;;;5034605;28;20551;-69
2021/08/12 07:21:23;;;;;;;7.27;6.57;;;20.30;99.90;;;;;;5034752;28;20453;-70
2021/08/12 07:23:50;;;;;;;8.20;6.70;;;20.30;99.90;;;;;;5034422;28;20850;-69
2021/08/12 07:26:17;;;;;;;8.07;6.10;;;20.30;99.90;;;;;;5034173;28;20455;-70
2021/08/12 07:28:46;;;;;;;9.57;6.27;;;20.40;99.90;;;;;;5034112;28;20931;-70
2021/08/12 07:31:15;;;;;;;8.10;6.50;;;20.50;99.90;;;;;;5034753;28;20455;-70
2021/08/12 07:33:42;;;;;;;7.47;6.77;;;20.50;99.90;;;;;;5034376;28;20440;-70
2021/08/12 07:36:10;;;;;;;7.73;6.93;;;20.50;99.90;;;;;;5034002;28;20453;-70
2021/08/12 07:38:37;;;;;;;8.53;6.50;;;20.60;99.90;;;;;;5034124;28;20450;-70
2021/08/12 07:41:04;;;;;;;8.80;7.37;;;20.70;99.90;;;;;;5034297;28;20453;-70
2021/08/12 07:43:34;;;;;;;7.70;6.90;;;20.70;99.90;;;;;;5034079;28;20489;-70
2021/08/12 07:46:01;;;;;;;8.27;7.20;;;20.80;99.90;;;;;;5034123;28;20445;-70
2021/08/12 07:48:28;;;;;;;6.80;6.10;;;20.80;99.90;;;;;;5034037;28;20456;-70
2021/08/12 07:50:55;;;;;;;9.63;7.40;;;20.90;99.90;;;;;;5034089;28;20480;-70
2021/08/12 07:53:23;;;;;;;8.03;6.77;;;20.90;99.90;;;;;;5033737;28;20537;-70
2021/08/12 07:55:50;;;;;;;10.97;6.73;;;21.10;99.90;;;;;;5033524;28;20489;-70
2021/08/12 07:58:17;;;;;;;8.13;7.33;;;21.10;99.90;;;;;;5034071;28;20849;-70
2021/08/12 08:00:44;;;;;;;7.73;6.27;;;21.20;99.90;;;;;;5033602;28;21006;-70
2021/08/12 08:03:11;;;;;;;7.50;6.50;;;21.30;99.90;;;;;;5033816;28;20482;-70
2021/08/12 08:05:38;;;;;;;8.40;6.50;;;21.40;99.90;;;;;;5033628;28;20457;-71
2021/08/12 08:08:05;;;;;;;6.87;6.10;;;21.40;99.90;;;;;;5033794;28;20542;-70
2021/08/12 08:10:33;;;;;;;8.20;6.50;;;21.50;99.90;;;;;;5033790;28;20641;-70
2021/08/12 08:13:00;;;;;;;9.13;7.40;;;21.60;99.90;;;;;;5033753;28;20529;-70
2021/08/12 08:15:27;;;;;;;6.87;5.53;;;21.80;99.90;;;;;;5033363;28;20494;-71
2021/08/12 08:17:54;;;;;;;7.20;6.10;;;22.50;99.90;;;;;;5033653;28;20457;-70
2021/08/12 08:20:21;;;;;;;7.67;6.20;;;23.70;99.90;;;;;;5033752;28;20466;-70
2021/08/12 08:22:48;;;;;;;6.77;5.60;;;25.30;99.90;;;;;;5033543;28;20479;-71
2021/08/12 08:25:15;;;;;;;5.90;5.40;;;26.10;99.90;;;;;;5033368;28;20490;-71
2021/08/12 08:27:43;;;;;;;7.13;6.43;;;26.70;99.90;;;;;;5033553;28;20533;-70
2021/08/12 08:30:11;;;;;;;5.90;5.40;;;26.80;99.90;;;;;;5033683;28;20462;-71
2021/08/12 08:32:38;;;;;;;6.80;6.20;;;26.70;99.90;;;;;;5033419;28;20526;-70
2021/08/12 08:35:06;;;;;;;5.97;5.37;;;27.10;99.90;;;;;;5033469;28;20504;-70
2021/08/12 08:37:32;;;;;;;6.70;5.70;;;27.10;99.90;;;;;;5033541;28;20439;-70
2021/08/12 08:39:59;;;;;;;5.50;4.90;;;26.70;99.90;;;;;;5033486;28;20470;-70
2021/08/12 08:42:26;;;;;;;6.13;5.33;;;26.40;99.90;;;;;;5033366;28;20474;-70
2021/08/12 08:44:58;;;;;;;5.90;5.30;;;26.10;99.90;;;;;;5033182;28;20479;-70
2021/08/12 08:47:25;;;;;;;6.20;5.60;;;25.80;99.90;;;;;;5033364;28;20534;-70
2021/08/12 08:49:54;;;;;;;6.43;5.83;;;25.40;99.90;;;;;;5033375;28;20520;-70
2021/08/12 08:52:22;;;;;;;5.40;4.90;;;25.20;99.90;;;;;;5033149;28;20442;-70
2021/08/12 08:54:49;;;;;;;6.47;5.77;;;25.00;99.90;;;;;;5033447;28;20943;-70
2021/08/12 08:57:16;;;;;;;6.50;6.00;;;25.10;99.90;;;;;;5033520;28;20540;-70
2021/08/12 08:59:43;;;;;;;6.60;5.90;;;25.20;99.90;;;;;;5033229;28;20462;-70
2021/08/12 09:02:11;;;;;;;7.50;6.20;;;25.40;99.90;;;;;;5032956;28;20959;-70
2021/08/12 09:04:38;;;;;;;6.30;5.40;;;25.60;99.90;;;;;;5033014;28;20542;-71
2021/08/12 09:07:07;;;;;;;7.20;5.60;;;26.00;99.90;;;;;;5036453;28;20796;-70
2021/08/12 09:09:35;;;;;;;5.63;5.13;;;26.50;99.90;;;;;;5036892;28;20478;-70
2021/08/12 09:12:02;;;;;;;7.37;6.50;;;27.30;99.90;;;;;;5037023;28;20949;-70
2021/08/12 09:14:34;;;;;;;5.60;5.10;;;28.70;98.00;;;;;;5036904;28;20449;-71
2021/08/12 09:17:20;;;;;;;5.40;5.00;;;30.40;94.40;;;;;;5036596;28;20457;-71
2021/08/12 09:20:02;;;;;;;5.00;4.60;;;32.30;87.30;;;;;;5036753;28;20516;-71
2021/08/12 09:22:29;;;;;;;5.97;5.47;;;33.90;78.00;;;;;;5036808;28;20875;-71
2021/08/12 09:24:56;;;;;;;5.20;4.73;;;35.10;69.10;;;;;;5036517;28;20533;-71
2021/08/12 09:27:25;;;;;;;4.93;4.53;;;35.90;62.50;;;;;;5036786;28;20443;-71
2021/08/12 09:30:11;;;;;;;4.97;4.57;;;36.60;58.50;;;;;;5036363;28;21011;-71
2021/08/12 09:32:48;;;;;;;4.80;4.40;;;37.90;56.50;;;;;;5036634;28;20434;-71
2021/08/12 09:35:24;;;;;;;4.60;4.20;;;38.90;51.80;;;;;;5036291;28;20447;-71
2021/08/12 09:37:51;;;;;;;4.97;4.57;;;39.40;49.10;;;;;;5036357;28;20434;-71
2021/08/12 09:40:26;;;;;;;4.60;4.23;;;39.30;47.30;;;;;;5036181;28;20463;-71
2021/08/12 09:42:56;;;;;;;5.27;4.77;;;39.40;47.30;;;;;;5036424;28;20474;-69
2021/08/12 09:45:24;;;;;;;4.93;4.60;;;39.70;47.80;;;;;;5036200;28;20459;-69
2021/08/12 09:47:51;;;;;;;4.50;4.20;;;40.10;46.70;;;;;;5036503;28;20443;-69
2021/08/12 09:50:26;;;;;;;4.60;4.20;;;40.10;45.50;;;;;;5036119;28;20521;-69
2021/08/12 09:52:53;;;;;;;5.10;4.70;;;40.00;44.70;;;;;;5036350;28;20521;-71
2021/08/12 09:55:22;;;;;;;4.40;4.10;;;40.10;44.40;;;;;;5036046;28;20450;-72
2021/08/12 09:57:51;;;;;;;4.93;4.53;;;40.10;45.40;;;;;;5036147;28;20450;-71
2021/08/12 10:00:38;;;;;;;4.77;4.43;;;39.60;45.30;;;;;;5036047;28;20510;-69
2021/08/12 10:03:31;;;;;;;4.90;4.50;;;39.30;45.70;;;;;;5036302;28;20814;-69
2021/08/12 10:06:00;;;;;;;4.63;4.27;;;38.00;47.20;;;;;;5035819;28;20454;-71
2021/08/12 10:08:29;;;;;;;4.60;4.30;;;37.90;49.60;;;;;;5036097;28;20443;-71
2021/08/12 10:10:57;;;;;;;4.87;4.47;;;37.50;47.80;;;;;;5035639;28;20859;-71
2021/08/12 10:13:24;;;;;;;4.97;4.57;;;37.70;50.10;;;;;;5035899;28;20895;-71
2021/08/12 10:15:51;;;;;;;5.40;5.00;;;37.40;50.20;;;;;;5035369;28;20465;-71
2021/08/12 10:18:19;;;;;;;5.40;5.00;;;36.60;49.50;;;;;;5035949;28;20461;-71
2021/08/12 10:20:47;;;;;;;5.00;4.60;;;35.50;52.40;;;;;;5035735;28;20611;-71
2021/08/12 10:23:18;;;;;;;5.67;5.17;;;34.90;53.30;;;;;;5035590;28;20514;-72
2021/08/12 10:25:52;;;;;;;5.37;4.87;;;34.90;55.20;;;;;;5035304;28;20447;-71
2021/08/12 10:28:21;;;;;;;5.00;4.60;;;35.10;57.10;;;;;;5035628;28;20447;-71
2021/08/12 10:30:49;;;;;;;5.63;5.20;;;35.30;55.20;;;;;;5035614;28;20562;-71
2021/08/12 10:33:16;;;;;;;6.07;5.47;;;36.40;54.00;;;;;;5035531;28;20435;-71
2021/08/12 10:35:43;;;;;;;5.23;4.83;;;36.50;52.20;;;;;;5035167;28;20446;-71
2021/08/12 10:38:10;;;;;;;5.27;4.87;;;37.70;51.50;;;;;;5035424;28;20870;-71
2021/08/12 10:40:42;;;;;;;4.80;4.50;;;38.80;50.40;;;;;;5035395;28;20528;-71
2021/08/12 10:43:13;;;;;;;4.30;4.00;;;39.30;46.00;;;;;;5035277;28;20483;-71
2021/08/12 10:45:40;;;;;;;4.53;4.23;;;40.20;45.10;;;;;;5035137;28;20443;-71
2021/08/12 10:48:19;;;;;;;4.60;4.20;;;41.20;42.70;;;;;;5035226;28;20445;-72
2021/08/12 10:51:00;;;;;;;4.70;4.30;;;40.10;44.30;;;;;;5035602;28;20470;-72
2021/08/12 10:53:27;;;;;;;5.60;5.20;;;40.40;44.50;;;;;;5035208;28;20443;-71
2021/08/12 10:56:12;;;;;;;4.90;4.60;;;40.90;42.80;;;;;;5034874;28;20447;-71
2021/08/12 10:58:55;;;;;;;4.80;4.40;;;40.60;43.50;;;;;;5034952;28;20447;-69
2021/08/12 11:01:30;;;;;;;5.50;5.10;;;40.10;43.40;;;;;;5026393;28;20960;-71
2021/08/12 11:04:02;;;;;;;5.43;4.93;;;38.60;46.60;;;;;;5034852;28;20485;-71
2021/08/12 11:06:43;;;;;;;4.63;4.23;;;37.80;47.80;;;;;;5034745;28;20537;-71
2021/08/12 11:09:11;;;;;;;5.13;4.70;;;36.90;49.30;;;;;;5034665;28;20553;-71
2021/08/12 11:12:01;;;;;;;5.60;5.10;;;36.20;51.40;;;;;;5034545;28;20829;-71
2021/08/12 11:14:53;;;;;;;5.50;5.00;;;35.80;52.30;;;;;;5034744;28;20534;-70
2021/08/12 11:17:23;;;;;;;5.60;5.10;;;35.10;52.90;;;;;;5034341;28;20517;-71
2021/08/12 11:19:51;;;;;;;5.40;4.97;;;34.90;54.10;;;;;;5034324;28;20833;-71
2021/08/12 11:22:33;;;;;;;5.73;5.13;;;34.10;53.70;;;;;;5034590;28;20439;-70
2021/08/12 11:25:00;;;;;;;5.07;4.67;;;33.30;54.10;;;;;;5034320;28;20545;-70
2021/08/12 11:27:45;;;;;;;5.47;5.00;;;32.80;55.60;;;;;;5034489;28;20522;-70
2021/08/12 11:30:48;;;;;;;6.10;5.53;;;32.50;57.00;;;;;;5033900;28;21007;-70
2021/08/12 11:33:44;;;;;;;5.60;5.10;;;32.00;58.40;;;;;;5034386;28;20452;-70
2021/08/12 11:36:23;;;;;;;5.27;4.83;;;31.40;60.00;;;;;;5034111;28;20436;-70
2021/08/12 11:38:58;;;;;;;5.73;5.20;;;31.20;63.00;;;;;;5034136;28;20826;-70
2021/08/12 11:41:27;;;;;;;5.80;5.27;;;31.10;66.30;;;;;;5034327;28;20427;-70
2021/08/12 11:43:56;;;;;;;5.90;5.30;;;31.00;64.60;;;;;;5033984;28;20481;-70
2021/08/12 11:46:23;;;;;;;5.90;5.40;;;31.00;64.60;;;;;;5033712;28;20466;-70
2021/08/12 11:48:51;;;;;;;5.97;5.37;;;30.90;65.50;;;;;;5033939;28;20457;-70
2021/08/12 11:51:21;;;;;;;6.73;6.13;;;30.80;66.20;;;;;;5034048;28;20455;-70
2021/08/12 11:53:51;;;;;;;6.10;5.53;;;30.70;65.00;;;;;;5033933;28;21020;-70
2021/08/12 11:56:24;;;;;;;5.40;4.90;;;30.60;64.60;;;;;;5033836;28;20450;-70
2021/08/12 11:58:52;;;;;;;6.10;5.50;;;30.50;65.80;;;;;;5033941;28;20534;-70
2021/08/12 12:01:22;;;;;;;7.80;5.30;;;30.60;68.00;;;;;;5033640;28;20451;-71
2021/08/12 12:03:50;;;;;;;6.47;5.90;;;30.60;65.70;;;;;;5033838;28;20486;-70
2021/08/12 12:06:35;;;;;;;5.60;5.10;;;30.60;65.70;;;;;;5033631;28;20449;-70
2021/08/12 12:09:21;;;;;;;5.93;5.43;;;30.50;66.00;;;;;;5033734;28;20895;-71
2021/08/12 12:11:53;;;;;;;5.97;5.07;;;30.40;66.30;;;;;;5033758;28;20535;-70
2021/08/12 12:14:21;;;;;;;5.97;5.37;;;30.50;66.40;;;;;;5033726;28;20801;-71
2021/08/12 12:17:15;;;;;;;5.23;4.83;;;30.60;68.20;;;;;;5033431;28;20460;-70
2021/08/12 12:20:11;;;;;;;6.13;5.63;;;30.70;66.80;;;;;;5033487;28;20562;-71
2021/08/12 12:22:40;;;;;;;5.87;5.37;;;30.80;68.70;;;;;;5033612;28;20444;-70
2021/08/12 12:25:09;;;;;;;6.97;5.90;;;30.80;66.90;;;;;;5033258;28;20487;-70
2021/08/12 12:27:36;;;;;;;6.13;5.53;;;30.80;64.70;;;;;;5033405;28;20454;-70
2021/08/12 12:30:06;;;;;;;6.13;5.53;;;30.70;66.50;;;;;;5033407;28;20558;-70
2021/08/12 12:32:34;;;;;;;6.47;5.87;;;30.70;64.30;;;;;;5033761;28;20434;-70
2021/08/12 12:35:05;;;;;;;6.00;5.40;;;30.80;67.60;;;;;;5033365;28;20535;-70
2021/08/12 12:37:33;;;;;;;6.50;5.90;;;30.80;67.80;;;;;;5033788;28;20512;-70
2021/08/12 12:40:00;;;;;;;5.40;4.90;;;30.90;66.70;;;;;;5033107;28;20469;-71
2021/08/12 12:42:31;;;;;;;5.57;5.07;;;30.90;65.70;;;;;;5037548;28;20449;-71
2021/08/12 12:45:03;;;;;;;6.00;5.50;;;30.80;62.50;;;;;;5037275;28;20470;-70
2021/08/12 12:47:32;;;;;;;6.50;5.90;;;30.70;67.70;;;;;;5037607;28;20446;-70
2021/08/12 12:50:17;;;;;;;6.13;5.60;;;30.70;60.80;;;;;;5037268;28;20553;-70
2021/08/12 12:52:59;;;;;;;6.20;5.70;;;30.80;63.00;;;;;;5037700;28;20482;-70
2021/08/12 12:55:29;;;;;;;5.70;5.20;;;30.90;62.60;;;;;;5037119;28;20813;-70
2021/08/12 12:58:01;;;;;;;6.60;5.77;;;30.80;62.10;;;;;;5037567;28;20467;-70